Mcallister Responder — WDC8665 — position and weather

sailwx.info

Track history (hours):
 
Tides and Currents Weather Stations Pressure Air Temp Water Temp Dewpoint Dewpoint Depression Visibility Wind Speed Wind Dir Waves Ship Positions

Mcallister Responder

Owner: McAllister Towing & Transportation, Staten Island, NY. More information available from US FCC via Universal Licensing System and Coast Guard Vessel Documentation Center.

Last reported at 2017-Nov-14 03:45 UTC. Time now 2017-Nov-18 01:06 UTC.
Position N 39°54' W 075°12'.

Length 34 m.

Type: Tug. MMSI: 367091050.

Date/timePositionNaut miles runAvg speedWind from/ knotsBaromVisibWave heightAir tempDewpointWater temp
2017-Nov-14 03:45N 39°54' W 075°12'2 6.8
2017-Nov-14 03:30N 39°52' W 075°13'611.5
2017-Nov-14 03:00N 39°51' W 075°20'611.4
2017-Nov-14 02:30N 39°48' W 075°26'611.4
2017-Nov-14 02:00N 39°43' W 075°30'612.0
2017-Nov-14 01:30N 39°38' W 075°34'4 8.8
2017-Nov-14 01:00N 39°34' W 075°35'5 9.7
2017-Nov-14 00:30N 39°33' W 075°41'510.2
2017-Nov-14 00:00N 39°32' W 075°48'4 8.5
2017-Nov-13 23:30N 39°31' W 075°53'611.1
2017-Nov-13 23:00N 39°28' W 075°59'  
Track history (hours):
 
Tides and Currents Weather Stations Pressure Air Temp Water Temp Dewpoint Dewpoint Depression Visibility Wind Speed Wind Dir Waves Ship Positions

Mcallister Responder

Owner: McAllister Towing & Transportation, Staten Island, NY. More information available from US FCC via Universal Licensing System and Coast Guard Vessel Documentation Center.

Last reported at 2017-Nov-14 03:45 UTC. Time now 2017-Nov-18 01:06 UTC.
Position N 39°54' W 075°12'.

Length 34 m.

Type: Tug. MMSI: 367091050.

Date/timePositionNaut miles runAvg speedWind from/ knotsBaromVisibWave heightAir tempDewpointWater temp
2017-Nov-14 03:45N 39°54' W 075°12'2 6.8
2017-Nov-14 03:30N 39°52' W 075°13'611.5
2017-Nov-14 03:00N 39°51' W 075°20'611.4
2017-Nov-14 02:30N 39°48' W 075°26'611.4
2017-Nov-14 02:00N 39°43' W 075°30'612.0
2017-Nov-14 01:30N 39°38' W 075°34'4 8.8
2017-Nov-14 01:00N 39°34' W 075°35'5 9.7
2017-Nov-14 00:30N 39°33' W 075°41'510.2
2017-Nov-14 00:00N 39°32' W 075°48'4 8.5
2017-Nov-13 23:30N 39°31' W 075°53'611.1
2017-Nov-13 23:00N 39°28' W 075°59'  

Dump ship's entire track history